sensor_id;sensor_type;location;lat;lon;timestamp;P1;durP1;ratioP1;P2;durP2;ratioP2
24799;SDS011;12897;50.812;4.430;2023-11-22T00:24:30;31.37;;;12.33;;
24799;SDS011;12897;50.812;4.430;2023-11-22T00:27:04;30.32;;;12.93;;
24799;SDS011;12897;50.812;4.430;2023-11-22T00:34:47;30.50;;;12.25;;
24799;SDS011;12897;50.812;4.430;2023-11-22T00:37:29;25.85;;;12.28;;
24799;SDS011;12897;50.812;4.430;2023-11-22T00:43:06;26.62;;;11.93;;
24799;SDS011;12897;50.812;4.430;2023-11-22T00:53:34;30.25;;;12.15;;
24799;SDS011;12897;50.812;4.430;2023-11-22T01:01:17;34.23;;;12.90;;
24799;SDS011;12897;50.812;4.430;2023-11-22T01:06:46;28.67;;;12.33;;
24799;SDS011;12897;50.812;4.430;2023-11-22T01:12:20;32.15;;;13.45;;
24799;SDS011;12897;50.812;4.430;2023-11-22T01:15:07;26.15;;;10.00;;
24799;SDS011;12897;50.812;4.430;2023-11-22T01:20:52;29.48;;;13.43;;
24799;SDS011;12897;50.812;4.430;2023-11-22T01:30:53;30.68;;;13.30;;
24799;SDS011;12897;50.812;4.430;2023-11-22T01:35:58;34.40;;;12.50;;
24799;SDS011;12897;50.812;4.430;2023-11-22T02:03:01;30.23;;;11.45;;
24799;SDS011;12897;50.812;4.430;2023-11-22T02:05:50;31.40;;;12.98;;
24799;SDS011;12897;50.812;4.430;2023-11-22T02:11:06;28.15;;;12.10;;
24799;SDS011;12897;50.812;4.430;2023-11-22T02:19:05;29.07;;;12.33;;
24799;SDS011;12897;50.812;4.430;2023-11-22T02:21:44;30.82;;;12.95;;
24799;SDS011;12897;50.812;4.430;2023-11-22T02:40:11;31.00;;;12.80;;
24799;SDS011;12897;50.812;4.430;2023-11-22T02:48:06;32.80;;;12.68;;
24799;SDS011;12897;50.812;4.430;2023-11-22T02:51:04;27.20;;;12.65;;
24799;SDS011;12897;50.812;4.430;2023-11-22T02:53:34;31.02;;;12.70;;
24799;SDS011;12897;50.812;4.430;2023-11-22T02:56:12;32.15;;;13.28;;
24799;SDS011;12897;50.812;4.430;2023-11-22T03:04:02;30.60;;;13.48;;
24799;SDS011;12897;50.812;4.430;2023-11-22T03:06:56;25.20;;;10.50;;
24799;SDS011;12897;50.812;4.430;2023-11-22T03:14:40;24.12;;;10.98;;
24799;SDS011;12897;50.812;4.430;2023-11-22T03:17:19;28.32;;;12.10;;
24799;SDS011;12897;50.812;4.430;2023-11-22T03:19:57;29.37;;;12.58;;
24799;SDS011;12897;50.812;4.430;2023-11-22T04:24:50;27.32;;;11.05;;
24799;SDS011;12897;50.812;4.430;2023-11-22T04:27:37;26.02;;;11.73;;
24799;SDS011;12897;50.812;4.430;2023-11-22T04:53:45;29.67;;;12.15;;
24799;SDS011;12897;50.812;4.430;2023-11-22T04:56:16;28.83;;;12.63;;
24799;SDS011;12897;50.812;4.430;2023-11-22T04:58:48;28.77;;;12.28;;
24799;SDS011;12897;50.812;4.430;2023-11-22T05:01:22;31.68;;;12.18;;
24799;SDS011;12897;50.812;4.430;2023-11-22T05:03:57;26.35;;;11.45;;
24799;SDS011;12897;50.812;4.430;2023-11-22T05:14:14;30.17;;;12.37;;
24799;SDS011;12897;50.812;4.430;2023-11-22T05:16:46;27.58;;;11.90;;
24799;SDS011;12897;50.812;4.430;2023-11-22T05:19:27;28.10;;;13.03;;
24799;SDS011;12897;50.812;4.430;2023-11-22T05:21:47;30.15;;;12.28;;
24799;SDS011;12897;50.812;4.430;2023-11-22T05:24:29;29.93;;;12.97;;
24799;SDS011;12897;50.812;4.430;2023-11-22T05:27:04;36.08;;;14.63;;
24799;SDS011;12897;50.812;4.430;2023-11-22T05:29:43;30.10;;;11.90;;
24799;SDS011;12897;50.812;4.430;2023-11-22T05:32:14;31.27;;;12.13;;
24799;SDS011;12897;50.812;4.430;2023-11-22T05:34:42;32.33;;;13.32;;
24799;SDS011;12897;50.812;4.430;2023-11-22T05:37:11;28.45;;;10.88;;
24799;SDS011;12897;50.812;4.430;2023-11-22T05:39:44;25.62;;;10.98;;
24799;SDS011;12897;50.812;4.430;2023-11-22T05:42:24;31.60;;;13.22;;
24799;SDS011;12897;50.812;4.430;2023-11-22T05:44:49;28.47;;;11.43;;
24799;SDS011;12897;50.812;4.430;2023-11-22T05:47:35;25.48;;;11.20;;
24799;SDS011;12897;50.812;4.430;2023-11-22T05:49:54;27.55;;;11.22;;
24799;SDS011;12897;50.812;4.430;2023-11-22T05:52:35;28.52;;;12.43;;
24799;SDS011;12897;50.812;4.430;2023-11-22T05:55:24;25.80;;;11.45;;
24799;SDS011;12897;50.812;4.430;2023-11-22T05:57:54;28.77;;;12.18;;
24799;SDS011;12897;50.812;4.430;2023-11-22T06:00:29;25.97;;;10.68;;
24799;SDS011;12897;50.812;4.430;2023-11-22T06:03:03;28.98;;;11.63;;
24799;SDS011;12897;50.812;4.430;2023-11-22T06:05:32;28.73;;;11.40;;
24799;SDS011;12897;50.812;4.430;2023-11-22T06:08:03;25.68;;;11.88;;
24799;SDS011;12897;50.812;4.430;2023-11-22T06:10:33;29.80;;;11.48;;
24799;SDS011;12897;50.812;4.430;2023-11-22T06:13:04;32.78;;;13.43;;
24799;SDS011;12897;50.812;4.430;2023-11-22T06:15:37;31.90;;;12.90;;
24799;SDS011;12897;50.812;4.430;2023-11-22T06:18:06;27.58;;;11.68;;
24799;SDS011;12897;50.812;4.430;2023-11-22T06:20:36;26.90;;;12.37;;
24799;SDS011;12897;50.812;4.430;2023-11-22T06:23:06;26.15;;;11.45;;
24799;SDS011;12897;50.812;4.430;2023-11-22T06:25:37;29.95;;;11.97;;
24799;SDS011;12897;50.812;4.430;2023-11-22T06:28:15;28.92;;;12.23;;
24799;SDS011;12897;50.812;4.430;2023-11-22T06:33:22;32.08;;;12.00;;
24799;SDS011;12897;50.812;4.430;2023-11-22T06:35:53;26.68;;;11.57;;
24799;SDS011;12897;50.812;4.430;2023-11-22T06:38:43;31.33;;;12.53;;
24799;SDS011;12897;50.812;4.430;2023-11-22T06:41:02;25.88;;;11.50;;
24799;SDS011;12897;50.812;4.430;2023-11-22T06:43:39;30.55;;;12.55;;
24799;SDS011;12897;50.812;4.430;2023-11-22T06:48:41;32.08;;;13.38;;
24799;SDS011;12897;50.812;4.430;2023-11-22T06:51:36;32.50;;;12.18;;
24799;SDS011;12897;50.812;4.430;2023-11-22T06:53:47;31.17;;;12.45;;
24799;SDS011;12897;50.812;4.430;2023-11-22T06:56:18;23.35;;;10.28;;
24799;SDS011;12897;50.812;4.430;2023-11-22T07:09:54;27.90;;;11.15;;
24799;SDS011;12897;50.812;4.430;2023-11-22T07:12:26;31.25;;;12.47;;
24799;SDS011;12897;50.812;4.430;2023-11-22T07:14:53;29.52;;;11.43;;
24799;SDS011;12897;50.812;4.430;2023-11-22T07:20:23;27.05;;;11.25;;
24799;SDS011;12897;50.812;4.430;2023-11-22T07:22:57;29.27;;;11.33;;
24799;SDS011;12897;50.812;4.430;2023-11-22T07:25:28;25.40;;;11.65;;
24799;SDS011;12897;50.812;4.430;2023-11-22T07:27:53;30.77;;;12.07;;
24799;SDS011;12897;50.812;4.430;2023-11-22T07:30:22;30.17;;;10.95;;
24799;SDS011;12897;50.812;4.430;2023-11-22T07:32:51;27.80;;;11.68;;
24799;SDS011;12897;50.812;4.430;2023-11-22T07:35:19;28.57;;;11.73;;
24799;SDS011;12897;50.812;4.430;2023-11-22T07:37:47;28.55;;;11.83;;
24799;SDS011;12897;50.812;4.430;2023-11-22T07:40:16;32.28;;;13.00;;
24799;SDS011;12897;50.812;4.430;2023-11-22T07:45:26;29.15;;;12.28;;
24799;SDS011;12897;50.812;4.430;2023-11-22T07:48:23;27.02;;;11.60;;
24799;SDS011;12897;50.812;4.430;2023-11-22T07:50:32;29.72;;;12.00;;
24799;SDS011;12897;50.812;4.430;2023-11-22T07:52:59;34.08;;;12.98;;
24799;SDS011;12897;50.812;4.430;2023-11-22T07:55:29;30.80;;;12.10;;
24799;SDS011;12897;50.812;4.430;2023-11-22T07:58:01;31.93;;;12.70;;
24799;SDS011;12897;50.812;4.430;2023-11-22T08:00:36;26.12;;;11.73;;
24799;SDS011;12897;50.812;4.430;2023-11-22T08:03:05;33.83;;;12.07;;
24799;SDS011;12897;50.812;4.430;2023-11-22T08:05:34;33.57;;;12.53;;
24799;SDS011;12897;50.812;4.430;2023-11-22T08:08:06;37.08;;;12.90;;
24799;SDS011;12897;50.812;4.430;2023-11-22T08:10:38;33.75;;;14.05;;
24799;SDS011;12897;50.812;4.430;2023-11-22T08:13:13;28.77;;;11.00;;
24799;SDS011;12897;50.812;4.430;2023-11-22T08:15:38;28.52;;;12.03;;
24799;SDS011;12897;50.812;4.430;2023-11-22T08:18:05;25.82;;;10.78;;
24799;SDS011;12897;50.812;4.430;2023-11-22T08:20:39;27.90;;;11.00;;
24799;SDS011;12897;50.812;4.430;2023-11-22T08:23:07;25.77;;;10.58;;
24799;SDS011;12897;50.812;4.430;2023-11-22T08:25:36;27.52;;;10.23;;
24799;SDS011;12897;50.812;4.430;2023-11-22T08:28:11;27.77;;;11.25;;
24799;SDS011;12897;50.812;4.430;2023-11-22T08:30:35;27.42;;;11.15;;
24799;SDS011;12897;50.812;4.430;2023-11-22T08:33:04;29.53;;;11.17;;
24799;SDS011;12897;50.812;4.430;2023-11-22T08:35:39;27.48;;;10.70;;
24799;SDS011;12897;50.812;4.430;2023-11-22T08:40:35;26.23;;;11.05;;
24799;SDS011;12897;50.812;4.430;2023-11-22T08:43:04;28.05;;;11.05;;
24799;SDS011;12897;50.812;4.430;2023-11-22T08:45:39;24.70;;;10.80;;
24799;SDS011;12897;50.812;4.430;2023-11-22T08:48:14;25.17;;;10.82;;
24799;SDS011;12897;50.812;4.430;2023-11-22T08:50:40;24.10;;;9.98;;
24799;SDS011;12897;50.812;4.430;2023-11-22T08:53:10;24.10;;;10.70;;
24799;SDS011;12897;50.812;4.430;2023-11-22T08:55:41;30.30;;;11.22;;
24799;SDS011;12897;50.812;4.430;2023-11-22T08:58:14;25.62;;;11.15;;
24799;SDS011;12897;50.812;4.430;2023-11-22T09:00:41;29.57;;;11.05;;
24799;SDS011;12897;50.812;4.430;2023-11-22T09:03:12;26.25;;;11.70;;
24799;SDS011;12897;50.812;4.430;2023-11-22T09:05:40;29.90;;;11.35;;
24799;SDS011;12897;50.812;4.430;2023-11-22T09:08:11;26.05;;;10.60;;
24799;SDS011;12897;50.812;4.430;2023-11-22T09:10:41;25.57;;;10.93;;
24799;SDS011;12897;50.812;4.430;2023-11-22T09:13:15;26.00;;;10.32;;
24799;SDS011;12897;50.812;4.430;2023-11-22T09:15:42;26.17;;;10.05;;
24799;SDS011;12897;50.812;4.430;2023-11-22T09:18:13;23.40;;;10.10;;
24799;SDS011;12897;50.812;4.430;2023-11-22T09:20:45;27.42;;;11.28;;
24799;SDS011;12897;50.812;4.430;2023-11-22T09:23:21;24.52;;;9.68;;
24799;SDS011;12897;50.812;4.430;2023-11-22T09:25:46;26.37;;;10.85;;
24799;SDS011;12897;50.812;4.430;2023-11-22T09:28:13;24.25;;;10.78;;
24799;SDS011;12897;50.812;4.430;2023-11-22T09:30:42;24.23;;;9.70;;
24799;SDS011;12897;50.812;4.430;2023-11-22T09:33:15;23.65;;;10.63;;
24799;SDS011;12897;50.812;4.430;2023-11-22T09:38:15;24.72;;;9.75;;
24799;SDS011;12897;50.812;4.430;2023-11-22T09:40:46;24.60;;;10.28;;
24799;SDS011;12897;50.812;4.430;2023-11-22T09:43:35;26.97;;;9.83;;
24799;SDS011;12897;50.812;4.430;2023-11-22T09:45:49;24.63;;;10.50;;
24799;SDS011;12897;50.812;4.430;2023-11-22T09:48:19;24.57;;;11.15;;
24799;SDS011;12897;50.812;4.430;2023-11-22T09:53:40;23.45;;;10.18;;
24799;SDS011;12897;50.812;4.430;2023-11-22T09:56:11;25.05;;;11.28;;
24799;SDS011;12897;50.812;4.430;2023-11-22T09:58:41;22.30;;;10.38;;
24799;SDS011;12897;50.812;4.430;2023-11-22T10:01:13;26.23;;;10.15;;
24799;SDS011;12897;50.812;4.430;2023-11-22T10:03:44;21.73;;;9.58;;
24799;SDS011;12897;50.812;4.430;2023-11-22T10:06:18;24.87;;;10.13;;
24799;SDS011;12897;50.812;4.430;2023-11-22T10:08:43;19.82;;;9.18;;
24799;SDS011;12897;50.812;4.430;2023-11-22T10:11:17;24.18;;;9.30;;
24799;SDS011;12897;50.812;4.430;2023-11-22T10:13:52;22.20;;;10.43;;
24799;SDS011;12897;50.812;4.430;2023-11-22T10:16:23;31.82;;;11.05;;
24799;SDS011;12897;50.812;4.430;2023-11-22T10:18:58;22.05;;;10.55;;
24799;SDS011;12897;50.812;4.430;2023-11-22T10:21:29;25.17;;;10.40;;
24799;SDS011;12897;50.812;4.430;2023-11-22T10:24:01;27.27;;;11.20;;
24799;SDS011;12897;50.812;4.430;2023-11-22T10:26:44;24.25;;;9.98;;
24799;SDS011;12897;50.812;4.430;2023-11-22T10:29:08;29.72;;;11.65;;
24799;SDS011;12897;50.812;4.430;2023-11-22T10:34:07;24.02;;;9.68;;
24799;SDS011;12897;50.812;4.430;2023-11-22T10:36:39;22.62;;;9.93;;
24799;SDS011;12897;50.812;4.430;2023-11-22T10:39:14;22.65;;;10.08;;
24799;SDS011;12897;50.812;4.430;2023-11-22T10:41:46;26.30;;;10.85;;
24799;SDS011;12897;50.812;4.430;2023-11-22T10:44:14;24.98;;;10.60;;
24799;SDS011;12897;50.812;4.430;2023-11-22T10:46:47;21.02;;;9.85;;
24799;SDS011;12897;50.812;4.430;2023-11-22T10:49:20;20.27;;;8.65;;
24799;SDS011;12897;50.812;4.430;2023-11-22T10:51:46;21.07;;;10.03;;
24799;SDS011;12897;50.812;4.430;2023-11-22T10:54:18;23.90;;;9.73;;
24799;SDS011;12897;50.812;4.430;2023-11-22T10:56:54;17.87;;;9.35;;
24799;SDS011;12897;50.812;4.430;2023-11-22T10:59:26;22.22;;;9.08;;
24799;SDS011;12897;50.812;4.430;2023-11-22T11:01:55;20.12;;;9.53;;
24799;SDS011;12897;50.812;4.430;2023-11-22T11:04:30;19.30;;;9.05;;
24799;SDS011;12897;50.812;4.430;2023-11-22T11:07:01;21.65;;;8.83;;
24799;SDS011;12897;50.812;4.430;2023-11-22T11:09:35;22.98;;;9.73;;
24799;SDS011;12897;50.812;4.430;2023-11-22T11:12:05;18.80;;;8.40;;
24799;SDS011;12897;50.812;4.430;2023-11-22T11:14:34;21.60;;;9.55;;
24799;SDS011;12897;50.812;4.430;2023-11-22T11:17:07;18.70;;;8.58;;
24799;SDS011;12897;50.812;4.430;2023-11-22T11:19:37;16.65;;;7.85;;
24799;SDS011;12897;50.812;4.430;2023-11-22T11:22:10;14.28;;;7.55;;
24799;SDS011;12897;50.812;4.430;2023-11-22T11:24:59;17.57;;;7.33;;
24799;SDS011;12897;50.812;4.430;2023-11-22T11:27:24;18.95;;;8.30;;
24799;SDS011;12897;50.812;4.430;2023-11-22T11:30:01;20.17;;;8.28;;
24799;SDS011;12897;50.812;4.430;2023-11-22T11:32:33;20.23;;;8.80;;
24799;SDS011;12897;50.812;4.430;2023-11-22T11:35:03;17.35;;;7.95;;
24799;SDS011;12897;50.812;4.430;2023-11-22T11:37:39;18.07;;;8.05;;
24799;SDS011;12897;50.812;4.430;2023-11-22T11:43:04;14.60;;;6.90;;
24799;SDS011;12897;50.812;4.430;2023-11-22T11:45:31;18.27;;;7.87;;
24799;SDS011;12897;50.812;4.430;2023-11-22T11:48:08;15.78;;;7.60;;
24799;SDS011;12897;50.812;4.430;2023-11-22T11:53:08;17.52;;;8.60;;
24799;SDS011;12897;50.812;4.430;2023-11-22T11:55:38;16.42;;;8.05;;
24799;SDS011;12897;50.812;4.430;2023-11-22T11:58:06;14.18;;;6.85;;
24799;SDS011;12897;50.812;4.430;2023-11-22T12:00:37;15.90;;;7.00;;
24799;SDS011;12897;50.812;4.430;2023-11-22T12:03:10;16.42;;;7.97;;
24799;SDS011;12897;50.812;4.430;2023-11-22T12:05:41;13.62;;;7.10;;
24799;SDS011;12897;50.812;4.430;2023-11-22T12:08:11;16.55;;;8.15;;
24799;SDS011;12897;50.812;4.430;2023-11-22T12:10:42;14.75;;;7.40;;
24799;SDS011;12897;50.812;4.430;2023-11-22T12:13:18;16.45;;;7.50;;
24799;SDS011;12897;50.812;4.430;2023-11-22T12:15:47;15.85;;;7.20;;
24799;SDS011;12897;50.812;4.430;2023-11-22T12:18:16;16.02;;;7.33;;
24799;SDS011;12897;50.812;4.430;2023-11-22T12:20:59;17.37;;;7.50;;
24799;SDS011;12897;50.812;4.430;2023-11-22T12:23:27;18.00;;;7.83;;
24799;SDS011;12897;50.812;4.430;2023-11-22T12:25:55;15.17;;;7.47;;
24799;SDS011;12897;50.812;4.430;2023-11-22T12:28:31;13.00;;;6.85;;
24799;SDS011;12897;50.812;4.430;2023-11-22T12:31:17;19.32;;;8.33;;
24799;SDS011;12897;50.812;4.430;2023-11-22T12:33:40;14.55;;;7.67;;
24799;SDS011;12897;50.812;4.430;2023-11-22T12:36:15;16.62;;;8.28;;
24799;SDS011;12897;50.812;4.430;2023-11-22T12:38:43;15.03;;;6.95;;
24799;SDS011;12897;50.812;4.430;2023-11-22T12:41:14;18.03;;;7.83;;
24799;SDS011;12897;50.812;4.430;2023-11-22T12:43:41;17.05;;;8.00;;
24799;SDS011;12897;50.812;4.430;2023-11-22T12:46:15;19.92;;;8.50;;
24799;SDS011;12897;50.812;4.430;2023-11-22T12:48:48;18.50;;;8.43;;
24799;SDS011;12897;50.812;4.430;2023-11-22T12:51:19;15.48;;;7.22;;
24799;SDS011;12897;50.812;4.430;2023-11-22T12:53:51;17.27;;;7.78;;
24799;SDS011;12897;50.812;4.430;2023-11-22T12:56:21;18.25;;;8.60;;
24799;SDS011;12897;50.812;4.430;2023-11-22T12:58:59;19.70;;;9.10;;
24799;SDS011;12897;50.812;4.430;2023-11-22T13:01:33;15.40;;;8.13;;
24799;SDS011;12897;50.812;4.430;2023-11-22T13:03:57;15.60;;;7.93;;
24799;SDS011;12897;50.812;4.430;2023-11-22T13:06:29;16.80;;;8.25;;
24799;SDS011;12897;50.812;4.430;2023-11-22T13:08:59;20.23;;;8.48;;
24799;SDS011;12897;50.812;4.430;2023-11-22T13:11:28;15.32;;;8.23;;
24799;SDS011;12897;50.812;4.430;2023-11-22T13:13:57;17.17;;;8.10;;
24799;SDS011;12897;50.812;4.430;2023-11-22T13:16:32;18.70;;;8.40;;
24799;SDS011;12897;50.812;4.430;2023-11-22T13:18:59;16.55;;;7.92;;
24799;SDS011;12897;50.812;4.430;2023-11-22T13:21:27;21.07;;;8.35;;
24799;SDS011;12897;50.812;4.430;2023-11-22T13:23:54;14.78;;;8.28;;
24799;SDS011;12897;50.812;4.430;2023-11-22T13:26:23;18.57;;;8.85;;
24799;SDS011;12897;50.812;4.430;2023-11-22T13:28:57;21.95;;;8.98;;
24799;SDS011;12897;50.812;4.430;2023-11-22T13:31:24;20.90;;;9.15;;
24799;SDS011;12897;50.812;4.430;2023-11-22T13:33:59;17.67;;;8.93;;
24799;SDS011;12897;50.812;4.430;2023-11-22T13:36:41;18.45;;;9.08;;
24799;SDS011;12897;50.812;4.430;2023-11-22T13:39:09;23.20;;;9.85;;
24799;SDS011;12897;50.812;4.430;2023-11-22T13:41:35;21.77;;;9.40;;
24799;SDS011;12897;50.812;4.430;2023-11-22T13:44:03;17.95;;;9.85;;
24799;SDS011;12897;50.812;4.430;2023-11-22T13:46:32;21.87;;;9.87;;
24799;SDS011;12897;50.812;4.430;2023-11-22T13:49:00;20.72;;;10.13;;
24799;SDS011;12897;50.812;4.430;2023-11-22T13:51:33;21.57;;;10.15;;
24799;SDS011;12897;50.812;4.430;2023-11-22T13:54:01;20.88;;;9.70;;
24799;SDS011;12897;50.812;4.430;2023-11-22T13:56:35;23.42;;;10.15;;
24799;SDS011;12897;50.812;4.430;2023-11-22T13:58:58;23.75;;;9.88;;
24799;SDS011;12897;50.812;4.430;2023-11-22T14:01:28;20.50;;;9.03;;
24799;SDS011;12897;50.812;4.430;2023-11-22T14:03:58;18.93;;;9.27;;
24799;SDS011;12897;50.812;4.430;2023-11-22T14:06:29;21.27;;;10.48;;
24799;SDS011;12897;50.812;4.430;2023-11-22T14:09:11;21.68;;;9.85;;
24799;SDS011;12897;50.812;4.430;2023-11-22T14:11:33;25.90;;;9.35;;
24799;SDS011;12897;50.812;4.430;2023-11-22T14:14:02;20.55;;;8.60;;
24799;SDS011;12897;50.812;4.430;2023-11-22T14:16:37;19.82;;;9.53;;
24799;SDS011;12897;50.812;4.430;2023-11-22T14:19:02;22.75;;;9.25;;
24799;SDS011;12897;50.812;4.430;2023-11-22T14:21:33;21.35;;;9.20;;
24799;SDS011;12897;50.812;4.430;2023-11-22T14:24:04;18.70;;;8.35;;
24799;SDS011;12897;50.812;4.430;2023-11-22T14:26:38;18.67;;;8.78;;
24799;SDS011;12897;50.812;4.430;2023-11-22T14:29:21;17.25;;;8.50;;
24799;SDS011;12897;50.812;4.430;2023-11-22T14:31:36;18.43;;;8.87;;
24799;SDS011;12897;50.812;4.430;2023-11-22T14:34:11;18.50;;;9.07;;
24799;SDS011;12897;50.812;4.430;2023-11-22T14:36:39;18.75;;;8.70;;
24799;SDS011;12897;50.812;4.430;2023-11-22T14:39:07;16.50;;;8.20;;
24799;SDS011;12897;50.812;4.430;2023-11-22T14:41:44;20.40;;;9.60;;
24799;SDS011;12897;50.812;4.430;2023-11-22T14:44:29;18.82;;;8.45;;
24799;SDS011;12897;50.812;4.430;2023-11-22T14:46:51;19.57;;;9.05;;
24799;SDS011;12897;50.812;4.430;2023-11-22T14:52:05;15.15;;;7.92;;
24799;SDS011;12897;50.812;4.430;2023-11-22T14:54:31;23.95;;;9.23;;
24799;SDS011;12897;50.812;4.430;2023-11-22T14:57:03;22.05;;;9.43;;
24799;SDS011;12897;50.812;4.430;2023-11-22T14:59:37;21.07;;;8.68;;
24799;SDS011;12897;50.812;4.430;2023-11-22T15:02:05;17.35;;;8.05;;
24799;SDS011;12897;50.812;4.430;2023-11-22T15:04:38;18.90;;;8.48;;
24799;SDS011;12897;50.812;4.430;2023-11-22T15:07:06;21.62;;;8.53;;
24799;SDS011;12897;50.812;4.430;2023-11-22T15:09:38;13.98;;;6.90;;
24799;SDS011;12897;50.812;4.430;2023-11-22T15:12:02;21.40;;;8.98;;
24799;SDS011;12897;50.812;4.430;2023-11-22T15:14:31;21.60;;;8.80;;
24799;SDS011;12897;50.812;4.430;2023-11-22T15:17:02;19.75;;;8.80;;
24799;SDS011;12897;50.812;4.430;2023-11-22T15:19:32;20.83;;;8.50;;
24799;SDS011;12897;50.812;4.430;2023-11-22T15:22:05;20.05;;;8.08;;
24799;SDS011;12897;50.812;4.430;2023-11-22T15:24:33;18.20;;;8.25;;
24799;SDS011;12897;50.812;4.430;2023-11-22T15:27:00;18.75;;;8.73;;
24799;SDS011;12897;50.812;4.430;2023-11-22T15:29:37;23.73;;;8.70;;
24799;SDS011;12897;50.812;4.430;2023-11-22T15:32:02;16.00;;;8.00;;
24799;SDS011;12897;50.812;4.430;2023-11-22T15:34:44;19.10;;;7.80;;
24799;SDS011;12897;50.812;4.430;2023-11-22T15:37:02;18.62;;;8.78;;
24799;SDS011;12897;50.812;4.430;2023-11-22T15:39:35;20.05;;;8.85;;
24799;SDS011;12897;50.812;4.430;2023-11-22T15:42:03;17.92;;;8.93;;
24799;SDS011;12897;50.812;4.430;2023-11-22T15:44:40;18.12;;;8.63;;
24799;SDS011;12897;50.812;4.430;2023-11-22T15:47:04;20.25;;;8.25;;
24799;SDS011;12897;50.812;4.430;2023-11-22T15:49:38;17.55;;;8.65;;
24799;SDS011;12897;50.812;4.430;2023-11-22T15:52:11;20.05;;;8.70;;
24799;SDS011;12897;50.812;4.430;2023-11-22T15:54:42;16.97;;;8.35;;
24799;SDS011;12897;50.812;4.430;2023-11-22T15:57:11;16.85;;;8.28;;
24799;SDS011;12897;50.812;4.430;2023-11-22T15:59:48;21.35;;;8.48;;
24799;SDS011;12897;50.812;4.430;2023-11-22T16:02:13;20.68;;;9.70;;
24799;SDS011;12897;50.812;4.430;2023-11-22T16:04:43;20.80;;;9.88;;
24799;SDS011;12897;50.812;4.430;2023-11-22T16:07:15;20.45;;;8.68;;
24799;SDS011;12897;50.812;4.430;2023-11-22T16:09:58;27.50;;;10.17;;
24799;SDS011;12897;50.812;4.430;2023-11-22T16:12:16;21.05;;;9.20;;
24799;SDS011;12897;50.812;4.430;2023-11-22T16:14:57;26.75;;;10.38;;
24799;SDS011;12897;50.812;4.430;2023-11-22T16:17:31;21.33;;;9.00;;
24799;SDS011;12897;50.812;4.430;2023-11-22T16:19:59;22.40;;;10.03;;
24799;SDS011;12897;50.812;4.430;2023-11-22T16:22:28;22.60;;;10.38;;
24799;SDS011;12897;50.812;4.430;2023-11-22T16:24:59;18.90;;;9.70;;
24799;SDS011;12897;50.812;4.430;2023-11-22T16:27:28;23.52;;;11.28;;
24799;SDS011;12897;50.812;4.430;2023-11-22T16:30:10;28.38;;;11.10;;
24799;SDS011;12897;50.812;4.430;2023-11-22T16:32:26;25.97;;;10.88;;
24799;SDS011;12897;50.812;4.430;2023-11-22T16:34:57;27.22;;;11.35;;
24799;SDS011;12897;50.812;4.430;2023-11-22T16:37:29;29.67;;;12.33;;
24799;SDS011;12897;50.812;4.430;2023-11-22T16:40:03;26.27;;;11.63;;
24799;SDS011;12897;50.812;4.430;2023-11-22T16:42:39;24.55;;;11.48;;
24799;SDS011;12897;50.812;4.430;2023-11-22T16:45:11;23.95;;;11.73;;
24799;SDS011;12897;50.812;4.430;2023-11-22T16:47:44;26.40;;;11.53;;
24799;SDS011;12897;50.812;4.430;2023-11-22T16:50:16;24.05;;;10.53;;
24799;SDS011;12897;50.812;4.430;2023-11-22T16:52:48;24.40;;;10.13;;
24799;SDS011;12897;50.812;4.430;2023-11-22T16:55:24;27.70;;;11.88;;
24799;SDS011;12897;50.812;4.430;2023-11-22T16:57:54;30.27;;;12.13;;
24799;SDS011;12897;50.812;4.430;2023-11-22T17:00:22;30.23;;;13.25;;
24799;SDS011;12897;50.812;4.430;2023-11-22T17:02:56;24.95;;;11.85;;
24799;SDS011;12897;50.812;4.430;2023-11-22T17:05:24;29.95;;;12.63;;
24799;SDS011;12897;50.812;4.430;2023-11-22T17:07:54;27.75;;;11.65;;
24799;SDS011;12897;50.812;4.430;2023-11-22T17:10:23;28.12;;;12.53;;
24799;SDS011;12897;50.812;4.430;2023-11-22T17:12:55;27.82;;;12.25;;
24799;SDS011;12897;50.812;4.430;2023-11-22T17:15:26;24.65;;;12.35;;
24799;SDS011;12897;50.812;4.430;2023-11-22T17:17:57;33.38;;;13.00;;
24799;SDS011;12897;50.812;4.430;2023-11-22T17:20:25;28.90;;;12.43;;
24799;SDS011;12897;50.812;4.430;2023-11-22T17:22:52;30.95;;;12.53;;
24799;SDS011;12897;50.812;4.430;2023-11-22T17:25:20;28.47;;;12.20;;
24799;SDS011;12897;50.812;4.430;2023-11-22T17:27:47;35.08;;;12.78;;
24799;SDS011;12897;50.812;4.430;2023-11-22T17:30:15;30.08;;;13.50;;
24799;SDS011;12897;50.812;4.430;2023-11-22T17:32:42;34.40;;;14.23;;
24799;SDS011;12897;50.812;4.430;2023-11-22T17:35:10;36.00;;;14.07;;
24799;SDS011;12897;50.812;4.430;2023-11-22T17:37:38;28.75;;;11.80;;
24799;SDS011;12897;50.812;4.430;2023-11-22T17:40:06;31.27;;;13.60;;
24799;SDS011;12897;50.812;4.430;2023-11-22T17:42:34;34.13;;;13.65;;
24799;SDS011;12897;50.812;4.430;2023-11-22T17:45:01;30.10;;;12.18;;
24799;SDS011;12897;50.812;4.430;2023-11-22T17:47:29;32.65;;;14.28;;
24799;SDS011;12897;50.812;4.430;2023-11-22T17:49:58;35.08;;;12.63;;
24799;SDS011;12897;50.812;4.430;2023-11-22T17:52:26;31.75;;;12.63;;
24799;SDS011;12897;50.812;4.430;2023-11-22T17:54:54;35.03;;;13.15;;
24799;SDS011;12897;50.812;4.430;2023-11-22T17:57:22;34.03;;;12.98;;
24799;SDS011;12897;50.812;4.430;2023-11-22T17:59:50;27.05;;;12.73;;
24799;SDS011;12897;50.812;4.430;2023-11-22T18:02:17;34.10;;;13.62;;
24799;SDS011;12897;50.812;4.430;2023-11-22T18:04:45;36.30;;;13.68;;
24799;SDS011;12897;50.812;4.430;2023-11-22T18:07:12;33.25;;;13.35;;
24799;SDS011;12897;50.812;4.430;2023-11-22T18:09:40;37.33;;;13.98;;
24799;SDS011;12897;50.812;4.430;2023-11-22T18:12:07;32.23;;;12.73;;
24799;SDS011;12897;50.812;4.430;2023-11-22T18:14:36;35.52;;;13.83;;
24799;SDS011;12897;50.812;4.430;2023-11-22T18:17:04;32.93;;;13.80;;
24799;SDS011;12897;50.812;4.430;2023-11-22T18:19:31;39.88;;;15.28;;
24799;SDS011;12897;50.812;4.430;2023-11-22T18:21:59;35.92;;;13.85;;
24799;SDS011;12897;50.812;4.430;2023-11-22T18:24:26;31.45;;;14.18;;
24799;SDS011;12897;50.812;4.430;2023-11-22T18:26:54;29.55;;;13.03;;
24799;SDS011;12897;50.812;4.430;2023-11-22T18:29:23;31.65;;;13.83;;
24799;SDS011;12897;50.812;4.430;2023-11-22T18:31:52;36.03;;;14.63;;
24799;SDS011;12897;50.812;4.430;2023-11-22T18:34:25;35.50;;;14.47;;
24799;SDS011;12897;50.812;4.430;2023-11-22T18:36:54;35.70;;;14.80;;
24799;SDS011;12897;50.812;4.430;2023-11-22T18:39:21;34.35;;;13.85;;
24799;SDS011;12897;50.812;4.430;2023-11-22T18:41:49;35.00;;;14.33;;
24799;SDS011;12897;50.812;4.430;2023-11-22T18:44:17;36.13;;;14.65;;
24799;SDS011;12897;50.812;4.430;2023-11-22T18:46:45;36.60;;;15.55;;
24799;SDS011;12897;50.812;4.430;2023-11-22T18:49:14;40.48;;;14.95;;
24799;SDS011;12897;50.812;4.430;2023-11-22T18:51:41;37.80;;;14.70;;
24799;SDS011;12897;50.812;4.430;2023-11-22T18:54:09;32.63;;;13.98;;
24799;SDS011;12897;50.812;4.430;2023-11-22T18:56:36;39.50;;;15.25;;
24799;SDS011;12897;50.812;4.430;2023-11-22T18:59:05;39.40;;;14.95;;
24799;SDS011;12897;50.812;4.430;2023-11-22T19:01:32;39.42;;;14.70;;
24799;SDS011;12897;50.812;4.430;2023-11-22T19:04:00;36.00;;;15.15;;
24799;SDS011;12897;50.812;4.430;2023-11-22T19:06:29;34.40;;;14.58;;
24799;SDS011;12897;50.812;4.430;2023-11-22T19:08:56;33.70;;;13.80;;
24799;SDS011;12897;50.812;4.430;2023-11-22T19:11:24;34.85;;;13.58;;